M/V Tuna — XUGC9 — position and weather

sailwx.info

Track history (hours):
 
Tides and Currents Weather Stations Pressure Air Temp Water Temp Dewpoint Dewpoint Depression Visibility Wind Speed Wind Dir Waves Ship Positions

M/V Tuna

Last reported at 2014-Aug-20 08:06 UTC. Time now 2014-Aug-21 22:00 UTC.
Position N 40°59' E 029°00'.

Length 114 m; draft 2.2 m.

Type: Ship (hazmat cat A). MMSI: 514778000.

Date/timePositionNaut miles runAvg speedWind from/ knotsBaromVisibWave heightAir tempDewpointWater temp
2014-Aug-20 08:06N 40°59' E 029°00'4 7.0
2014-Aug-20 07:33N 40°56' E 029°03'7 7.3
2014-Aug-20 06:33N 40°52' E 029°12'0 0.2
2014-Aug-20 05:24N 40°52' E 029°12'0 0.0
2014-Aug-20 04:30N 40°52' E 029°12'0 0.0
2014-Aug-20 03:30N 40°52' E 029°12'0 0.0
2014-Aug-20 02:30N 40°52' E 029°12'0 0.0
2014-Aug-20 01:23N 40°52' E 029°12'0 0.0
2014-Aug-20 00:29N 40°52' E 029°12'0 0.1
2014-Aug-19 23:29N 40°52' E 029°12'0 0.0
2014-Aug-19 22:29N 40°52' E 029°12'0 0.0
2014-Aug-19 21:16N 40°52' E 029°12'0 0.0
2014-Aug-19 20:16N 40°52' E 029°12'0 0.0
2014-Aug-19 19:22N 40°52' E 029°12'0 0.0
2014-Aug-19 18:28N 40°52' E 029°12'2 2.3
2014-Aug-19 17:33N 40°50' E 029°12'7 7.3
2014-Aug-19 16:33N 40°45' E 029°19'10 8.1
2014-Aug-19 15:20N 40°46' E 029°32'5 0.1
2014-Aug-17 18:25N 40°46' E 029°26'0 0.0
2014-Aug-17 17:07N 40°46' E 029°26'0 0.0
2014-Aug-17 15:25N 40°46' E 029°26'0 0.0
2014-Aug-17 12:30N 40°46' E 029°26'0 0.0
2014-Aug-17 10:12N 40°46' E 029°26'0 0.1
2014-Aug-17 09:30N 40°46' E 029°26'0 0.0
2014-Aug-17 08:24N 40°46' E 029°26'0 0.0
2014-Aug-17 05:29N 40°46' E 029°26'0 0.0
2014-Aug-17 04:23N 40°46' E 029°26'0 0.0
2014-Aug-16 19:28N 40°46' E 029°26'0 0.0
2014-Aug-16 18:03N 40°46' E 029°26'0 0.0
2014-Aug-16 17:03N 40°46' E 029°26'0 0.0
2014-Aug-16 16:33N 40°46' E 029°26'0 0.1
2014-Aug-16 14:21N 40°46' E 029°26'0 0.0
2014-Aug-16 13:27N 40°46' E 029°26'0 0.0
2014-Aug-15 22:31N 40°46' E 029°26'5 5.1
2014-Aug-15 21:31N 40°44' E 029°20'7 6.8
2014-Aug-15 20:33N 40°46' E 029°12'7 6.6
2014-Aug-15 19:32N 40°49' E 029°04'6 6.3
2014-Aug-15 18:32N 40°53' E 028°57'25 8.0
2014-Aug-15 15:26N 41°17' E 029°08'294 6.4
2014-Aug-13 17:33N 46°05' E 030°28'0 0.0
2014-Aug-13 09:09N 46°05' E 030°28'0 0.0
2014-Aug-13 08:27N 46°05' E 030°28'0 0.0
2014-Aug-13 07:33N 46°05' E 030°28'0 0.0
2014-Aug-13 05:24N 46°05' E 030°28'0 0.0
2014-Aug-13 04:33N 46°05' E 030°28'0 0.0
2014-Aug-13 03:33N 46°05' E 030°28'0 0.0
2014-Aug-13 02:30N 46°05' E 030°28'0 0.0
2014-Aug-13 01:33N 46°05' E 030°28'0 0.0
2014-Aug-13 00:33N 46°05' E 030°28'0 0.0
2014-Aug-12 23:33N 46°05' E 030°28'0 0.0
2014-Aug-12 22:33N 46°05' E 030°28'0 0.0
2014-Aug-12 21:33N 46°05' E 030°28'0 0.0
2014-Aug-12 20:32N 46°05' E 030°28'0 0.0
2014-Aug-12 19:31N 46°05' E 030°28'0 0.0
2014-Aug-12 18:33N 46°05' E 030°28'0 0.0
2014-Aug-12 17:31N 46°05' E 030°28'  
Track history (hours):
 
Tides and Currents Weather Stations Pressure Air Temp Water Temp Dewpoint Dewpoint Depression Visibility Wind Speed Wind Dir Waves Ship Positions

M/V Tuna

Last reported at 2014-Aug-20 08:06 UTC. Time now 2014-Aug-21 22:00 UTC.
Position N 40°59' E 029°00'.

Length 114 m; draft 2.2 m.

Type: Ship (hazmat cat A). MMSI: 514778000.

Date/timePositionNaut miles runAvg speedWind from/ knotsBaromVisibWave heightAir tempDewpointWater temp
2014-Aug-20 08:06N 40°59' E 029°00'4 7.0
2014-Aug-20 07:33N 40°56' E 029°03'7 7.3
2014-Aug-20 06:33N 40°52' E 029°12'0 0.2
2014-Aug-20 05:24N 40°52' E 029°12'0 0.0
2014-Aug-20 04:30N 40°52' E 029°12'0 0.0
2014-Aug-20 03:30N 40°52' E 029°12'0 0.0
2014-Aug-20 02:30N 40°52' E 029°12'0 0.0
2014-Aug-20 01:23N 40°52' E 029°12'0 0.0
2014-Aug-20 00:29N 40°52' E 029°12'0 0.1
2014-Aug-19 23:29N 40°52' E 029°12'0 0.0
2014-Aug-19 22:29N 40°52' E 029°12'0 0.0
2014-Aug-19 21:16N 40°52' E 029°12'0 0.0
2014-Aug-19 20:16N 40°52' E 029°12'0 0.0
2014-Aug-19 19:22N 40°52' E 029°12'0 0.0
2014-Aug-19 18:28N 40°52' E 029°12'2 2.3
2014-Aug-19 17:33N 40°50' E 029°12'7 7.3
2014-Aug-19 16:33N 40°45' E 029°19'10 8.1
2014-Aug-19 15:20N 40°46' E 029°32'5 0.1
2014-Aug-17 18:25N 40°46' E 029°26'0 0.0
2014-Aug-17 17:07N 40°46' E 029°26'0 0.0
2014-Aug-17 15:25N 40°46' E 029°26'0 0.0
2014-Aug-17 12:30N 40°46' E 029°26'0 0.0
2014-Aug-17 10:12N 40°46' E 029°26'0 0.1
2014-Aug-17 09:30N 40°46' E 029°26'0 0.0
2014-Aug-17 08:24N 40°46' E 029°26'0 0.0
2014-Aug-17 05:29N 40°46' E 029°26'0 0.0
2014-Aug-17 04:23N 40°46' E 029°26'0 0.0
2014-Aug-16 19:28N 40°46' E 029°26'0 0.0
2014-Aug-16 18:03N 40°46' E 029°26'0 0.0
2014-Aug-16 17:03N 40°46' E 029°26'0 0.0
2014-Aug-16 16:33N 40°46' E 029°26'0 0.1
2014-Aug-16 14:21N 40°46' E 029°26'0 0.0
2014-Aug-16 13:27N 40°46' E 029°26'0 0.0
2014-Aug-15 22:31N 40°46' E 029°26'5 5.1
2014-Aug-15 21:31N 40°44' E 029°20'7 6.8
2014-Aug-15 20:33N 40°46' E 029°12'7 6.6
2014-Aug-15 19:32N 40°49' E 029°04'6 6.3
2014-Aug-15 18:32N 40°53' E 028°57'25 8.0
2014-Aug-15 15:26N 41°17' E 029°08'294 6.4
2014-Aug-13 17:33N 46°05' E 030°28'0 0.0
2014-Aug-13 09:09N 46°05' E 030°28'0 0.0
2014-Aug-13 08:27N 46°05' E 030°28'0 0.0
2014-Aug-13 07:33N 46°05' E 030°28'0 0.0
2014-Aug-13 05:24N 46°05' E 030°28'0 0.0
2014-Aug-13 04:33N 46°05' E 030°28'0 0.0
2014-Aug-13 03:33N 46°05' E 030°28'0 0.0
2014-Aug-13 02:30N 46°05' E 030°28'0 0.0
2014-Aug-13 01:33N 46°05' E 030°28'0 0.0
2014-Aug-13 00:33N 46°05' E 030°28'0 0.0
2014-Aug-12 23:33N 46°05' E 030°28'0 0.0
2014-Aug-12 22:33N 46°05' E 030°28'0 0.0
2014-Aug-12 21:33N 46°05' E 030°28'0 0.0
2014-Aug-12 20:32N 46°05' E 030°28'0 0.0
2014-Aug-12 19:31N 46°05' E 030°28'0 0.0
2014-Aug-12 18:33N 46°05' E 030°28'0 0.0
2014-Aug-12 17:31N 46°05' E 030°28'  

Dump ship's entire track history